Terminal Aerodrome Forecast
Issued by NWS North Platte, NE

Home | Current Version | Previous Version | Text Only | Print | Product List | Glossary On
Versions: 1 2 3 4 5 6 7 8 9 10 11 12 13 14 15 16 17 18 19
000
FTUS43 KLBF 290500
TAFVTN
TAF
KVTN 290520Z 2906/3006 31017G28KT P6SM BKN120
     FM290900 31018G32KT P6SM SCT120
     FM291200 31017G24KT P6SM SKC
     FM291400 32025G34KT P6SM SKC
     FM292100 33017G25KT P6SM SKC
     FM300100 VRB06KT P6SM SKC=

USA.gov is the U.S. government's official web portal to all federal, state and local government web resources and services.